sensor_id;sensor_type;location;lat;lon;timestamp;temperature;humidity
60701;DHT22;46541;49.894;10.886;2022-09-17T00:01:05;11.70;99.90
60701;DHT22;46541;49.894;10.886;2022-09-17T00:03:32;11.60;99.90
60701;DHT22;46541;49.894;10.886;2022-09-17T00:06:07;11.60;99.90
60701;DHT22;46541;49.894;10.886;2022-09-17T00:08:36;11.60;99.90
60701;DHT22;46541;49.894;10.886;2022-09-17T00:11:12;11.60;99.90
60701;DHT22;46541;49.894;10.886;2022-09-17T00:13:40;11.50;99.90
60701;DHT22;46541;49.894;10.886;2022-09-17T00:16:08;11.50;99.90
60701;DHT22;46541;49.894;10.886;2022-09-17T00:18:35;11.50;99.90
60701;DHT22;46541;49.894;10.886;2022-09-17T00:21:06;11.50;99.90
60701;DHT22;46541;49.894;10.886;2022-09-17T00:23:33;11.50;99.90
60701;DHT22;46541;49.894;10.886;2022-09-17T00:26:04;11.50;99.90
60701;DHT22;46541;49.894;10.886;2022-09-17T00:28:31;11.40;99.90
60701;DHT22;46541;49.894;10.886;2022-09-17T00:30:58;11.30;99.90
60701;DHT22;46541;49.894;10.886;2022-09-17T00:33:25;11.30;99.90
60701;DHT22;46541;49.894;10.886;2022-09-17T00:36:00;11.30;99.90
60701;DHT22;46541;49.894;10.886;2022-09-17T00:38:27;11.30;99.90
60701;DHT22;46541;49.894;10.886;2022-09-17T00:40:54;11.30;99.90
60701;DHT22;46541;49.894;10.886;2022-09-17T00:43:52;11.30;99.90
60701;DHT22;46541;49.894;10.886;2022-09-17T00:46:39;11.20;99.90
60701;DHT22;46541;49.894;10.886;2022-09-17T00:51:49;11.10;99.90
60701;DHT22;46541;49.894;10.886;2022-09-17T00:54:24;11.10;99.90
60701;DHT22;46541;49.894;10.886;2022-09-17T00:56:51;11.00;99.90
60701;DHT22;46541;49.894;10.886;2022-09-17T00:59:19;11.00;99.90
60701;DHT22;46541;49.894;10.886;2022-09-17T01:01:47;10.90;99.90
60701;DHT22;46541;49.894;10.886;2022-09-17T01:04:24;10.90;99.90
60701;DHT22;46541;49.894;10.886;2022-09-17T01:07:03;10.90;99.90
60701;DHT22;46541;49.894;10.886;2022-09-17T01:36:51;11.00;99.90
60701;DHT22;46541;49.894;10.886;2022-09-17T01:43:01;11.00;99.90
60701;DHT22;46541;49.894;10.886;2022-09-17T01:45:54;11.00;99.90
60701;DHT22;46541;49.894;10.886;2022-09-17T01:48:30;11.00;99.90
60701;DHT22;46541;49.894;10.886;2022-09-17T01:51:06;11.00;99.90
60701;DHT22;46541;49.894;10.886;2022-09-17T01:54:02;11.00;99.90
60701;DHT22;46541;49.894;10.886;2022-09-17T01:56:38;11.10;99.90
60701;DHT22;46541;49.894;10.886;2022-09-17T01:59:08;11.10;99.90
60701;DHT22;46541;49.894;10.886;2022-09-17T02:01:36;11.10;99.90
60701;DHT22;46541;49.894;10.886;2022-09-17T02:04:18;11.10;99.90
60701;DHT22;46541;49.894;10.886;2022-09-17T02:06:54;11.10;99.90
60701;DHT22;46541;49.894;10.886;2022-09-17T02:09:27;11.10;99.90
60701;DHT22;46541;49.894;10.886;2022-09-17T02:11:59;11.20;99.90
60701;DHT22;46541;49.894;10.886;2022-09-17T02:14:30;11.20;99.90
60701;DHT22;46541;49.894;10.886;2022-09-17T02:17:06;11.20;99.90
60701;DHT22;46541;49.894;10.886;2022-09-17T02:19:35;11.20;99.90
60701;DHT22;46541;49.894;10.886;2022-09-17T02:22:31;11.30;99.90
60701;DHT22;46541;49.894;10.886;2022-09-17T02:25:23;11.30;99.90
60701;DHT22;46541;49.894;10.886;2022-09-17T02:28:01;11.30;99.90
60701;DHT22;46541;49.894;10.886;2022-09-17T02:30:30;11.30;99.90
60701;DHT22;46541;49.894;10.886;2022-09-17T02:32:58;11.30;99.90
60701;DHT22;46541;49.894;10.886;2022-09-17T02:35:25;11.40;99.90
60701;DHT22;46541;49.894;10.886;2022-09-17T02:37:52;11.30;99.90
60701;DHT22;46541;49.894;10.886;2022-09-17T02:40:20;11.40;99.90
60701;DHT22;46541;49.894;10.886;2022-09-17T02:50:55;11.40;99.90
60701;DHT22;46541;49.894;10.886;2022-09-17T02:53:48;11.30;99.90
60701;DHT22;46541;49.894;10.886;2022-09-17T02:56:42;11.40;99.90
60701;DHT22;46541;49.894;10.886;2022-09-17T03:04:30;11.50;99.90
60701;DHT22;46541;49.894;10.886;2022-09-17T03:06:57;11.50;99.90
60701;DHT22;46541;49.894;10.886;2022-09-17T03:09:25;11.50;99.90
60701;DHT22;46541;49.894;10.886;2022-09-17T03:11:52;11.50;99.90
60701;DHT22;46541;49.894;10.886;2022-09-17T03:14:18;11.50;99.90
60701;DHT22;46541;49.894;10.886;2022-09-17T03:16:46;11.50;99.90
60701;DHT22;46541;49.894;10.886;2022-09-17T03:19:13;11.50;99.90
60701;DHT22;46541;49.894;10.886;2022-09-17T03:21:40;11.50;99.90
60701;DHT22;46541;49.894;10.886;2022-09-17T03:24:07;11.50;99.90
60701;DHT22;46541;49.894;10.886;2022-09-17T03:26:33;11.60;99.90
60701;DHT22;46541;49.894;10.886;2022-09-17T03:29:00;11.60;99.90
60701;DHT22;46541;49.894;10.886;2022-09-17T03:31:27;11.60;99.90
60701;DHT22;46541;49.894;10.886;2022-09-17T03:33:54;11.60;99.90
60701;DHT22;46541;49.894;10.886;2022-09-17T03:36:21;11.60;99.90
60701;DHT22;46541;49.894;10.886;2022-09-17T03:38:48;11.60;99.90
60701;DHT22;46541;49.894;10.886;2022-09-17T03:41:14;11.60;99.90
60701;DHT22;46541;49.894;10.886;2022-09-17T03:43:41;11.50;99.90
60701;DHT22;46541;49.894;10.886;2022-09-17T03:46:08;11.50;99.90
60701;DHT22;46541;49.894;10.886;2022-09-17T03:48:35;11.50;99.90
60701;DHT22;46541;49.894;10.886;2022-09-17T03:51:03;11.50;99.90
60701;DHT22;46541;49.894;10.886;2022-09-17T03:53:30;11.50;99.90
60701;DHT22;46541;49.894;10.886;2022-09-17T03:55:58;11.50;99.90
60701;DHT22;46541;49.894;10.886;2022-09-17T03:58:27;11.50;99.90
60701;DHT22;46541;49.894;10.886;2022-09-17T04:00:54;11.60;99.90
60701;DHT22;46541;49.894;10.886;2022-09-17T04:03:24;11.60;99.90
60701;DHT22;46541;49.894;10.886;2022-09-17T04:05:51;11.60;99.90
60701;DHT22;46541;49.894;10.886;2022-09-17T04:08:18;11.70;99.90
60701;DHT22;46541;49.894;10.886;2022-09-17T04:10:45;11.70;99.90
60701;DHT22;46541;49.894;10.886;2022-09-17T04:13:13;11.60;99.90
60701;DHT22;46541;49.894;10.886;2022-09-17T04:15:41;11.60;99.90
60701;DHT22;46541;49.894;10.886;2022-09-17T04:18:08;11.70;99.90
60701;DHT22;46541;49.894;10.886;2022-09-17T04:20:35;11.70;99.90
60701;DHT22;46541;49.894;10.886;2022-09-17T04:23:02;11.70;99.90
60701;DHT22;46541;49.894;10.886;2022-09-17T04:25:29;11.70;99.90
60701;DHT22;46541;49.894;10.886;2022-09-17T04:27:56;11.70;99.90
60701;DHT22;46541;49.894;10.886;2022-09-17T04:30:23;11.70;99.90
60701;DHT22;46541;49.894;10.886;2022-09-17T04:32:50;11.60;99.90
60701;DHT22;46541;49.894;10.886;2022-09-17T04:35:16;11.60;99.90
60701;DHT22;46541;49.894;10.886;2022-09-17T04:37:51;11.60;99.90
60701;DHT22;46541;49.894;10.886;2022-09-17T04:40:18;11.60;99.90
60701;DHT22;46541;49.894;10.886;2022-09-17T04:42:45;11.70;99.90
60701;DHT22;46541;49.894;10.886;2022-09-17T04:45:11;11.60;99.90
60701;DHT22;46541;49.894;10.886;2022-09-17T04:47:39;11.50;99.90
60701;DHT22;46541;49.894;10.886;2022-09-17T04:50:06;11.40;99.90
60701;DHT22;46541;49.894;10.886;2022-09-17T04:52:32;11.40;99.90
60701;DHT22;46541;49.894;10.886;2022-09-17T04:54:59;11.30;99.90
60701;DHT22;46541;49.894;10.886;2022-09-17T04:57:26;11.20;99.90
60701;DHT22;46541;49.894;10.886;2022-09-17T04:59:53;11.20;99.90
60701;DHT22;46541;49.894;10.886;2022-09-17T05:02:20;11.10;99.90
60701;DHT22;46541;49.894;10.886;2022-09-17T05:04:46;11.00;99.90
60701;DHT22;46541;49.894;10.886;2022-09-17T05:07:13;10.90;99.90
60701;DHT22;46541;49.894;10.886;2022-09-17T05:09:40;10.80;99.90
60701;DHT22;46541;49.894;10.886;2022-09-17T05:12:07;10.80;99.90
60701;DHT22;46541;49.894;10.886;2022-09-17T05:14:34;10.90;99.90
60701;DHT22;46541;49.894;10.886;2022-09-17T05:17:00;10.80;99.90
60701;DHT22;46541;49.894;10.886;2022-09-17T05:19:27;10.90;99.90
60701;DHT22;46541;49.894;10.886;2022-09-17T05:21:54;10.90;99.90
60701;DHT22;46541;49.894;10.886;2022-09-17T05:24:20;10.90;99.90
60701;DHT22;46541;49.894;10.886;2022-09-17T05:26:47;10.90;99.90
60701;DHT22;46541;49.894;10.886;2022-09-17T05:29:14;10.80;99.90
60701;DHT22;46541;49.894;10.886;2022-09-17T05:31:40;10.80;99.90
60701;DHT22;46541;49.894;10.886;2022-09-17T05:34:08;10.80;99.90
60701;DHT22;46541;49.894;10.886;2022-09-17T05:36:35;10.80;99.90
60701;DHT22;46541;49.894;10.886;2022-09-17T05:39:01;10.90;99.90
60701;DHT22;46541;49.894;10.886;2022-09-17T05:41:28;10.80;99.90
60701;DHT22;46541;49.894;10.886;2022-09-17T05:43:55;10.80;99.90
60701;DHT22;46541;49.894;10.886;2022-09-17T05:46:21;10.80;99.90
60701;DHT22;46541;49.894;10.886;2022-09-17T05:48:48;10.80;99.90
60701;DHT22;46541;49.894;10.886;2022-09-17T05:51:15;10.80;99.90
60701;DHT22;46541;49.894;10.886;2022-09-17T05:53:42;10.80;99.90
60701;DHT22;46541;49.894;10.886;2022-09-17T05:56:08;10.80;99.90
60701;DHT22;46541;49.894;10.886;2022-09-17T05:58:35;10.90;99.90
60701;DHT22;46541;49.894;10.886;2022-09-17T06:01:02;10.90;99.90
60701;DHT22;46541;49.894;10.886;2022-09-17T06:03:29;10.90;99.90
60701;DHT22;46541;49.894;10.886;2022-09-17T06:05:57;11.00;99.90
60701;DHT22;46541;49.894;10.886;2022-09-17T06:08:26;11.00;99.90
60701;DHT22;46541;49.894;10.886;2022-09-17T06:10:53;11.00;99.90
60701;DHT22;46541;49.894;10.886;2022-09-17T06:13:27;11.10;99.90
60701;DHT22;46541;49.894;10.886;2022-09-17T06:15:53;11.10;99.90
60701;DHT22;46541;49.894;10.886;2022-09-17T06:18:20;11.10;99.90
60701;DHT22;46541;49.894;10.886;2022-09-17T06:23:21;11.20;99.90
60701;DHT22;46541;49.894;10.886;2022-09-17T06:25:56;11.20;99.90
60701;DHT22;46541;49.894;10.886;2022-09-17T06:28:24;11.20;99.90
60701;DHT22;46541;49.894;10.886;2022-09-17T06:30:52;11.20;99.90
60701;DHT22;46541;49.894;10.886;2022-09-17T06:33:20;11.20;99.90
60701;DHT22;46541;49.894;10.886;2022-09-17T06:35:47;11.30;99.90
60701;DHT22;46541;49.894;10.886;2022-09-17T06:38:14;11.30;99.90
60701;DHT22;46541;49.894;10.886;2022-09-17T06:40:41;11.40;99.90
60701;DHT22;46541;49.894;10.886;2022-09-17T06:43:08;11.40;99.90
60701;DHT22;46541;49.894;10.886;2022-09-17T06:45:35;11.40;99.90
60701;DHT22;46541;49.894;10.886;2022-09-17T06:48:04;11.50;99.90
60701;DHT22;46541;49.894;10.886;2022-09-17T06:50:31;11.50;99.90
60701;DHT22;46541;49.894;10.886;2022-09-17T06:52:58;11.50;99.90
60701;DHT22;46541;49.894;10.886;2022-09-17T06:55:25;11.60;99.90
60701;DHT22;46541;49.894;10.886;2022-09-17T06:57:51;11.60;99.90
60701;DHT22;46541;49.894;10.886;2022-09-17T07:00:18;11.70;99.90
60701;DHT22;46541;49.894;10.886;2022-09-17T07:02:55;11.80;99.90
60701;DHT22;46541;49.894;10.886;2022-09-17T07:05:22;11.80;99.90
60701;DHT22;46541;49.894;10.886;2022-09-17T07:07:50;11.90;99.90
60701;DHT22;46541;49.894;10.886;2022-09-17T07:10:17;11.90;99.90
60701;DHT22;46541;49.894;10.886;2022-09-17T07:12:44;11.90;99.90
60701;DHT22;46541;49.894;10.886;2022-09-17T07:15:15;11.90;99.90
60701;DHT22;46541;49.894;10.886;2022-09-17T07:17:42;11.90;99.90
60701;DHT22;46541;49.894;10.886;2022-09-17T07:20:10;12.00;99.90
60701;DHT22;46541;49.894;10.886;2022-09-17T07:22:37;12.00;99.90
60701;DHT22;46541;49.894;10.886;2022-09-17T07:25:04;12.10;99.90
60701;DHT22;46541;49.894;10.886;2022-09-17T07:27:31;12.20;99.90
60701;DHT22;46541;49.894;10.886;2022-09-17T07:29:58;12.30;99.90
60701;DHT22;46541;49.894;10.886;2022-09-17T07:32:25;12.50;99.90
60701;DHT22;46541;49.894;10.886;2022-09-17T07:34:54;12.50;99.90
60701;DHT22;46541;49.894;10.886;2022-09-17T07:37:20;12.50;99.90
60701;DHT22;46541;49.894;10.886;2022-09-17T07:39:47;12.40;99.90
60701;DHT22;46541;49.894;10.886;2022-09-17T07:42:14;12.30;99.90
60701;DHT22;46541;49.894;10.886;2022-09-17T07:44:41;12.30;99.90
60701;DHT22;46541;49.894;10.886;2022-09-17T07:47:07;12.40;99.90
60701;DHT22;46541;49.894;10.886;2022-09-17T07:49:35;12.30;99.90
60701;DHT22;46541;49.894;10.886;2022-09-17T07:52:02;12.20;99.90
60701;DHT22;46541;49.894;10.886;2022-09-17T07:54:34;12.30;99.90
60701;DHT22;46541;49.894;10.886;2022-09-17T07:57:04;12.30;99.90
60701;DHT22;46541;49.894;10.886;2022-09-17T07:59:31;12.30;99.90
60701;DHT22;46541;49.894;10.886;2022-09-17T08:01:58;12.30;99.90
60701;DHT22;46541;49.894;10.886;2022-09-17T08:04:25;12.30;99.90
60701;DHT22;46541;49.894;10.886;2022-09-17T08:06:52;12.30;99.90
60701;DHT22;46541;49.894;10.886;2022-09-17T08:09:18;12.40;99.90
60701;DHT22;46541;49.894;10.886;2022-09-17T08:11:45;12.50;99.90
60701;DHT22;46541;49.894;10.886;2022-09-17T08:14:27;12.60;99.90
60701;DHT22;46541;49.894;10.886;2022-09-17T08:16:56;12.70;99.90
60701;DHT22;46541;49.894;10.886;2022-09-17T08:19:22;12.70;99.90
60701;DHT22;46541;49.894;10.886;2022-09-17T08:21:49;12.80;99.90
60701;DHT22;46541;49.894;10.886;2022-09-17T08:24:17;12.80;99.90
60701;DHT22;46541;49.894;10.886;2022-09-17T08:26:44;12.80;99.90
60701;DHT22;46541;49.894;10.886;2022-09-17T08:29:10;12.90;99.90
60701;DHT22;46541;49.894;10.886;2022-09-17T08:31:37;13.10;99.90
60701;DHT22;46541;49.894;10.886;2022-09-17T08:34:08;13.20;99.90
60701;DHT22;46541;49.894;10.886;2022-09-17T08:36:35;13.30;99.90
60701;DHT22;46541;49.894;10.886;2022-09-17T08:39:02;13.50;99.90
60701;DHT22;46541;49.894;10.886;2022-09-17T08:44:31;13.50;99.90
60701;DHT22;46541;49.894;10.886;2022-09-17T08:49:58;13.50;99.90
60701;DHT22;46541;49.894;10.886;2022-09-17T08:55:58;13.40;99.90
60701;DHT22;46541;49.894;10.886;2022-09-17T09:01:10;13.80;99.90
60701;DHT22;46541;49.894;10.886;2022-09-17T09:06:30;14.60;99.90
60701;DHT22;46541;49.894;10.886;2022-09-17T09:09:05;14.70;99.90
60701;DHT22;46541;49.894;10.886;2022-09-17T09:11:36;14.80;99.90
60701;DHT22;46541;49.894;10.886;2022-09-17T09:14:26;15.10;99.90
60701;DHT22;46541;49.894;10.886;2022-09-17T09:16:57;14.90;99.90
60701;DHT22;46541;49.894;10.886;2022-09-17T09:19:28;15.00;99.90
60701;DHT22;46541;49.894;10.886;2022-09-17T09:22:19;14.80;99.90
60701;DHT22;46541;49.894;10.886;2022-09-17T09:30:51;14.90;99.90
60701;DHT22;46541;49.894;10.886;2022-09-17T09:33:31;15.00;99.90
60701;DHT22;46541;49.894;10.886;2022-09-17T09:35:58;15.20;99.90
60701;DHT22;46541;49.894;10.886;2022-09-17T09:43:46;16.00;99.90
60701;DHT22;46541;49.894;10.886;2022-09-17T09:57:19;16.20;99.90
60701;DHT22;46541;49.894;10.886;2022-09-17T09:59:47;16.30;99.90
60701;DHT22;46541;49.894;10.886;2022-09-17T10:02:14;16.00;99.90
60701;DHT22;46541;49.894;10.886;2022-09-17T10:04:42;15.70;99.90
60701;DHT22;46541;49.894;10.886;2022-09-17T10:07:10;15.70;99.90
60701;DHT22;46541;49.894;10.886;2022-09-17T10:09:38;15.90;99.90
60701;DHT22;46541;49.894;10.886;2022-09-17T10:14:41;15.90;99.90
60701;DHT22;46541;49.894;10.886;2022-09-17T10:19:40;15.90;99.90
60701;DHT22;46541;49.894;10.886;2022-09-17T10:24:45;16.00;99.90
60701;DHT22;46541;49.894;10.886;2022-09-17T10:27:16;16.00;99.90
60701;DHT22;46541;49.894;10.886;2022-09-17T10:29:45;16.10;99.90
60701;DHT22;46541;49.894;10.886;2022-09-17T10:32:18;16.40;99.90
60701;DHT22;46541;49.894;10.886;2022-09-17T10:34:58;16.50;99.90
60701;DHT22;46541;49.894;10.886;2022-09-17T10:37:35;16.60;99.90
60701;DHT22;46541;49.894;10.886;2022-09-17T10:43:00;16.60;99.90
60701;DHT22;46541;49.894;10.886;2022-09-17T10:45:39;16.50;99.90
60701;DHT22;46541;49.894;10.886;2022-09-17T10:48:14;16.20;99.90
60701;DHT22;46541;49.894;10.886;2022-09-17T10:50:47;16.20;99.90
60701;DHT22;46541;49.894;10.886;2022-09-17T10:53:16;16.40;99.90
60701;DHT22;46541;49.894;10.886;2022-09-17T10:58:50;16.80;99.80
60701;DHT22;46541;49.894;10.886;2022-09-17T11:04:48;16.90;99.60
60701;DHT22;46541;49.894;10.886;2022-09-17T11:07:37;16.80;99.70
60701;DHT22;46541;49.894;10.886;2022-09-17T11:34:37;15.70;99.90
60701;DHT22;46541;49.894;10.886;2022-09-17T11:37:20;15.60;99.90
60701;DHT22;46541;49.894;10.886;2022-09-17T11:42:48;15.60;99.90
60701;DHT22;46541;49.894;10.886;2022-09-17T11:45:25;15.50;99.90
60701;DHT22;46541;49.894;10.886;2022-09-17T11:47:55;15.60;99.90
60701;DHT22;46541;49.894;10.886;2022-09-17T11:50:40;15.70;99.90
60701;DHT22;46541;49.894;10.886;2022-09-17T11:53:40;15.90;99.90
60701;DHT22;46541;49.894;10.886;2022-09-17T11:56:16;15.90;99.90
60701;DHT22;46541;49.894;10.886;2022-09-17T11:59:03;16.00;99.90
60701;DHT22;46541;49.894;10.886;2022-09-17T12:01:43;16.20;99.90
60701;DHT22;46541;49.894;10.886;2022-09-17T12:10:08;17.10;99.90
60701;DHT22;46541;49.894;10.886;2022-09-17T12:12:49;16.90;99.90
60701;DHT22;46541;49.894;10.886;2022-09-17T12:15:23;16.50;99.90
60701;DHT22;46541;49.894;10.886;2022-09-17T12:21:03;16.00;99.90
60701;DHT22;46541;49.894;10.886;2022-09-17T12:23:49;15.80;99.90
60701;DHT22;46541;49.894;10.886;2022-09-17T12:26:43;15.60;99.90
60701;DHT22;46541;49.894;10.886;2022-09-17T12:35:39;13.80;99.90
60701;DHT22;46541;49.894;10.886;2022-09-17T12:38:51;13.20;99.90
60701;DHT22;46541;49.894;10.886;2022-09-17T12:58:53;13.80;99.90
60701;DHT22;46541;49.894;10.886;2022-09-17T13:13:26;13.90;99.90
60701;DHT22;46541;49.894;10.886;2022-09-17T13:21:19;14.10;99.90
60701;DHT22;46541;49.894;10.886;2022-09-17T13:23:50;14.20;99.90
60701;DHT22;46541;49.894;10.886;2022-09-17T13:26:19;14.10;99.90
60701;DHT22;46541;49.894;10.886;2022-09-17T13:28:49;14.10;99.90
60701;DHT22;46541;49.894;10.886;2022-09-17T13:36:52;14.10;99.90
60701;DHT22;46541;49.894;10.886;2022-09-17T13:44:50;14.30;99.90
60701;DHT22;46541;49.894;10.886;2022-09-17T13:47:25;14.50;99.90
60701;DHT22;46541;49.894;10.886;2022-09-17T13:49:58;14.60;99.90
60701;DHT22;46541;49.894;10.886;2022-09-17T13:52:48;14.60;99.90
60701;DHT22;46541;49.894;10.886;2022-09-17T13:58:08;14.40;99.90
60701;DHT22;46541;49.894;10.886;2022-09-17T14:24:37;13.60;99.90
60701;DHT22;46541;49.894;10.886;2022-09-17T14:30:22;13.60;99.90
60701;DHT22;46541;49.894;10.886;2022-09-17T14:33:07;13.50;99.90
60701;DHT22;46541;49.894;10.886;2022-09-17T14:35:45;13.50;99.90
60701;DHT22;46541;49.894;10.886;2022-09-17T14:38:15;13.40;99.90
60701;DHT22;46541;49.894;10.886;2022-09-17T14:40:47;13.40;99.90
60701;DHT22;46541;49.894;10.886;2022-09-17T14:46:00;13.50;99.90
60701;DHT22;46541;49.894;10.886;2022-09-17T14:48:31;13.40;99.90
60701;DHT22;46541;49.894;10.886;2022-09-17T14:54:24;13.20;99.90
60701;DHT22;46541;49.894;10.886;2022-09-17T14:57:00;13.10;99.90
60701;DHT22;46541;49.894;10.886;2022-09-17T15:01:59;13.00;99.90
60701;DHT22;46541;49.894;10.886;2022-09-17T15:04:28;13.00;99.90
60701;DHT22;46541;49.894;10.886;2022-09-17T15:07:10;13.00;99.90
60701;DHT22;46541;49.894;10.886;2022-09-17T15:09:37;12.90;99.90
60701;DHT22;46541;49.894;10.886;2022-09-17T15:12:05;12.90;99.90
60701;DHT22;46541;49.894;10.886;2022-09-17T15:14:37;12.90;99.90
60701;DHT22;46541;49.894;10.886;2022-09-17T15:17:05;13.00;99.90
60701;DHT22;46541;49.894;10.886;2022-09-17T15:19:37;13.00;99.90
60701;DHT22;46541;49.894;10.886;2022-09-17T15:22:15;13.00;99.90
60701;DHT22;46541;49.894;10.886;2022-09-17T15:25:09;13.00;99.90
60701;DHT22;46541;49.894;10.886;2022-09-17T15:27:44;13.00;99.90
60701;DHT22;46541;49.894;10.886;2022-09-17T15:30:17;13.00;99.90
60701;DHT22;46541;49.894;10.886;2022-09-17T15:32:53;13.10;99.90
60701;DHT22;46541;49.894;10.886;2022-09-17T15:35:24;13.10;99.90
60701;DHT22;46541;49.894;10.886;2022-09-17T15:37:56;13.30;99.90
60701;DHT22;46541;49.894;10.886;2022-09-17T15:40:43;13.60;99.90
60701;DHT22;46541;49.894;10.886;2022-09-17T15:43:29;13.60;99.90
60701;DHT22;46541;49.894;10.886;2022-09-17T15:45:56;13.60;99.90
60701;DHT22;46541;49.894;10.886;2022-09-17T15:50:55;13.50;99.90
60701;DHT22;46541;49.894;10.886;2022-09-17T15:53:30;13.50;99.90
60701;DHT22;46541;49.894;10.886;2022-09-17T15:58:29;13.70;99.90
60701;DHT22;46541;49.894;10.886;2022-09-17T16:08:49;14.00;99.90
60701;DHT22;46541;49.894;10.886;2022-09-17T16:11:18;14.10;99.90
60701;DHT22;46541;49.894;10.886;2022-09-17T16:13:46;14.30;99.90
60701;DHT22;46541;49.894;10.886;2022-09-17T16:16:24;14.40;99.90
60701;DHT22;46541;49.894;10.886;2022-09-17T16:18:52;14.50;99.90
60701;DHT22;46541;49.894;10.886;2022-09-17T16:21:19;14.50;99.90
60701;DHT22;46541;49.894;10.886;2022-09-17T16:23:46;14.60;99.90
60701;DHT22;46541;49.894;10.886;2022-09-17T16:26:41;14.60;99.90
60701;DHT22;46541;49.894;10.886;2022-09-17T16:29:12;14.50;99.90
60701;DHT22;46541;49.894;10.886;2022-09-17T16:31:40;14.40;99.90
60701;DHT22;46541;49.894;10.886;2022-09-17T16:34:07;14.20;99.90
60701;DHT22;46541;49.894;10.886;2022-09-17T16:36:34;14.10;99.90
60701;DHT22;46541;49.894;10.886;2022-09-17T16:39:01;14.00;99.90
60701;DHT22;46541;49.894;10.886;2022-09-17T16:41:27;13.90;99.90
60701;DHT22;46541;49.894;10.886;2022-09-17T16:43:54;13.80;99.90
60701;DHT22;46541;49.894;10.886;2022-09-17T16:46:21;13.70;99.90
60701;DHT22;46541;49.894;10.886;2022-09-17T16:48:51;13.60;99.90
60701;DHT22;46541;49.894;10.886;2022-09-17T16:51:18;13.50;99.90
60701;DHT22;46541;49.894;10.886;2022-09-17T16:53:45;13.40;99.90
60701;DHT22;46541;49.894;10.886;2022-09-17T16:56:13;13.30;99.90
60701;DHT22;46541;49.894;10.886;2022-09-17T16:58:40;13.30;99.90
60701;DHT22;46541;49.894;10.886;2022-09-17T17:01:12;13.20;99.90
60701;DHT22;46541;49.894;10.886;2022-09-17T17:03:40;13.20;99.90
60701;DHT22;46541;49.894;10.886;2022-09-17T17:06:17;13.10;99.90
60701;DHT22;46541;49.894;10.886;2022-09-17T17:08:44;13.10;99.90
60701;DHT22;46541;49.894;10.886;2022-09-17T17:11:11;13.00;99.90
60701;DHT22;46541;49.894;10.886;2022-09-17T17:13:40;13.00;99.90
60701;DHT22;46541;49.894;10.886;2022-09-17T17:16:08;12.90;99.90
60701;DHT22;46541;49.894;10.886;2022-09-17T17:18:35;12.90;99.90
60701;DHT22;46541;49.894;10.886;2022-09-17T17:21:11;12.80;99.90
60701;DHT22;46541;49.894;10.886;2022-09-17T17:23:37;12.80;99.90
60701;DHT22;46541;49.894;10.886;2022-09-17T17:26:05;12.80;99.90
60701;DHT22;46541;49.894;10.886;2022-09-17T17:28:33;12.70;99.90
60701;DHT22;46541;49.894;10.886;2022-09-17T17:31:04;12.70;99.90
60701;DHT22;46541;49.894;10.886;2022-09-17T17:33:32;12.60;99.90
60701;DHT22;46541;49.894;10.886;2022-09-17T17:35:59;12.60;99.90
60701;DHT22;46541;49.894;10.886;2022-09-17T17:38:33;12.50;99.90
60701;DHT22;46541;49.894;10.886;2022-09-17T17:41:09;12.50;99.90
60701;DHT22;46541;49.894;10.886;2022-09-17T17:43:36;12.50;99.90
60701;DHT22;46541;49.894;10.886;2022-09-17T17:46:08;12.50;99.90
60701;DHT22;46541;49.894;10.886;2022-09-17T17:48:35;12.40;99.90
60701;DHT22;46541;49.894;10.886;2022-09-17T17:51:04;12.40;99.90
60701;DHT22;46541;49.894;10.886;2022-09-17T17:53:31;12.40;99.90
60701;DHT22;46541;49.894;10.886;2022-09-17T17:56:00;12.40;99.90
60701;DHT22;46541;49.894;10.886;2022-09-17T17:58:27;12.30;99.90
60701;DHT22;46541;49.894;10.886;2022-09-17T18:00:54;12.30;99.90
60701;DHT22;46541;49.894;10.886;2022-09-17T18:03:21;12.30;99.90
60701;DHT22;46541;49.894;10.886;2022-09-17T18:05:54;12.30;99.90
60701;DHT22;46541;49.894;10.886;2022-09-17T18:08:24;12.30;99.90
60701;DHT22;46541;49.894;10.886;2022-09-17T18:10:53;12.30;99.90
60701;DHT22;46541;49.894;10.886;2022-09-17T18:13:20;12.30;99.90
60701;DHT22;46541;49.894;10.886;2022-09-17T18:15:55;12.30;99.90
60701;DHT22;46541;49.894;10.886;2022-09-17T18:18:22;12.20;99.90
60701;DHT22;46541;49.894;10.886;2022-09-17T18:20:50;12.20;99.90
60701;DHT22;46541;49.894;10.886;2022-09-17T18:23:19;12.10;99.90
60701;DHT22;46541;49.894;10.886;2022-09-17T18:25:57;12.10;99.90
60701;DHT22;46541;49.894;10.886;2022-09-17T18:28:25;12.10;99.90
60701;DHT22;46541;49.894;10.886;2022-09-17T18:30:53;12.00;99.90
60701;DHT22;46541;49.894;10.886;2022-09-17T18:33:25;12.00;99.90
60701;DHT22;46541;49.894;10.886;2022-09-17T18:35:53;12.00;99.90
60701;DHT22;46541;49.894;10.886;2022-09-17T18:38:23;11.90;99.90
60701;DHT22;46541;49.894;10.886;2022-09-17T18:40:50;11.90;99.90
60701;DHT22;46541;49.894;10.886;2022-09-17T18:43:17;11.90;99.90
60701;DHT22;46541;49.894;10.886;2022-09-17T18:45:54;11.90;99.90
60701;DHT22;46541;49.894;10.886;2022-09-17T18:48:22;11.90;99.90
60701;DHT22;46541;49.894;10.886;2022-09-17T18:51:01;11.90;99.90
60701;DHT22;46541;49.894;10.886;2022-09-17T18:53:29;11.90;99.90
60701;DHT22;46541;49.894;10.886;2022-09-17T18:56:00;11.80;99.90
60701;DHT22;46541;49.894;10.886;2022-09-17T18:58:28;11.80;99.90
60701;DHT22;46541;49.894;10.886;2022-09-17T19:00:54;11.80;99.90
60701;DHT22;46541;49.894;10.886;2022-09-17T19:03:21;11.90;99.90
60701;DHT22;46541;49.894;10.886;2022-09-17T19:05:48;11.80;99.90
60701;DHT22;46541;49.894;10.886;2022-09-17T19:08:20;11.80;99.90
60701;DHT22;46541;49.894;10.886;2022-09-17T19:10:50;11.80;99.90
60701;DHT22;46541;49.894;10.886;2022-09-17T19:13:18;11.70;99.90
60701;DHT22;46541;49.894;10.886;2022-09-17T19:15:45;11.70;99.90
60701;DHT22;46541;49.894;10.886;2022-09-17T19:18:12;11.70;99.90
60701;DHT22;46541;49.894;10.886;2022-09-17T19:20:39;11.60;99.90
60701;DHT22;46541;49.894;10.886;2022-09-17T19:23:06;11.60;99.90
60701;DHT22;46541;49.894;10.886;2022-09-17T19:25:34;11.60;99.90
60701;DHT22;46541;49.894;10.886;2022-09-17T19:28:03;11.60;99.90
60701;DHT22;46541;49.894;10.886;2022-09-17T19:30:30;11.60;99.90
60701;DHT22;46541;49.894;10.886;2022-09-17T19:32:57;11.60;99.90
60701;DHT22;46541;49.894;10.886;2022-09-17T19:35:24;11.60;99.90
60701;DHT22;46541;49.894;10.886;2022-09-17T19:37:51;11.60;99.90
60701;DHT22;46541;49.894;10.886;2022-09-17T19:40:18;11.70;99.90